sensor_id;sensor_type;location;lat;lon;timestamp;temperature;humidity
15969;DHT22;8085;53.472;9.794;2023-04-06T00:00:22;1.80;37.70
15969;DHT22;8085;53.472;9.794;2023-04-06T00:02:52;1.80;41.40
15969;DHT22;8085;53.472;9.794;2023-04-06T00:05:19;1.70;41.20
15969;DHT22;8085;53.472;9.794;2023-04-06T00:07:50;1.70;42.90
15969;DHT22;8085;53.472;9.794;2023-04-06T00:10:24;1.60;42.60
15969;DHT22;8085;53.472;9.794;2023-04-06T00:12:55;1.50;45.30
15969;DHT22;8085;53.472;9.794;2023-04-06T00:15:23;1.50;44.20
15969;DHT22;8085;53.472;9.794;2023-04-06T00:17:53;1.50;46.40
15969;DHT22;8085;53.472;9.794;2023-04-06T00:20:20;1.40;48.10
15969;DHT22;8085;53.472;9.794;2023-04-06T00:22:47;1.40;49.60
15969;DHT22;8085;53.472;9.794;2023-04-06T00:25:18;1.30;47.40
15969;DHT22;8085;53.472;9.794;2023-04-06T00:27:46;1.30;48.00
15969;DHT22;8085;53.472;9.794;2023-04-06T00:30:19;1.20;48.20
15969;DHT22;8085;53.472;9.794;2023-04-06T00:32:50;1.20;51.00
15969;DHT22;8085;53.472;9.794;2023-04-06T00:35:20;1.20;52.90
15969;DHT22;8085;53.472;9.794;2023-04-06T00:37:47;1.20;54.10
15969;DHT22;8085;53.472;9.794;2023-04-06T00:40:15;1.10;53.60
15969;DHT22;8085;53.472;9.794;2023-04-06T00:42:42;1.10;55.30
15969;DHT22;8085;53.472;9.794;2023-04-06T00:45:16;1.10;55.00
15969;DHT22;8085;53.472;9.794;2023-04-06T00:47:43;1.00;55.40
15969;DHT22;8085;53.472;9.794;2023-04-06T00:50:10;1.10;56.50
15969;DHT22;8085;53.472;9.794;2023-04-06T00:52:40;1.00;54.40
15969;DHT22;8085;53.472;9.794;2023-04-06T00:55:08;1.00;52.60
15969;DHT22;8085;53.472;9.794;2023-04-06T00:57:36;1.00;51.20
15969;DHT22;8085;53.472;9.794;2023-04-06T01:00:04;1.00;52.80
15969;DHT22;8085;53.472;9.794;2023-04-06T01:02:33;1.00;54.50
15969;DHT22;8085;53.472;9.794;2023-04-06T01:05:01;0.90;53.10
15969;DHT22;8085;53.472;9.794;2023-04-06T01:07:28;0.90;53.10
15969;DHT22;8085;53.472;9.794;2023-04-06T01:09:55;0.90;54.00
15969;DHT22;8085;53.472;9.794;2023-04-06T01:12:27;0.80;54.70
15969;DHT22;8085;53.472;9.794;2023-04-06T01:14:56;0.80;55.40
15969;DHT22;8085;53.472;9.794;2023-04-06T01:17:23;0.80;57.00
15969;DHT22;8085;53.472;9.794;2023-04-06T01:19:52;0.70;59.70
15969;DHT22;8085;53.472;9.794;2023-04-06T01:22:21;0.70;63.40
15969;DHT22;8085;53.472;9.794;2023-04-06T01:24:50;0.70;65.80
15969;DHT22;8085;53.472;9.794;2023-04-06T01:27:17;0.70;68.90
15969;DHT22;8085;53.472;9.794;2023-04-06T01:29:45;0.60;71.60
15969;DHT22;8085;53.472;9.794;2023-04-06T01:32:15;0.60;75.10
15969;DHT22;8085;53.472;9.794;2023-04-06T01:34:42;0.60;77.20
15969;DHT22;8085;53.472;9.794;2023-04-06T01:37:11;0.50;76.00
15969;DHT22;8085;53.472;9.794;2023-04-06T01:39:42;0.50;77.10
15969;DHT22;8085;53.472;9.794;2023-04-06T01:42:09;0.40;75.30
15969;DHT22;8085;53.472;9.794;2023-04-06T01:44:36;0.40;72.60
15969;DHT22;8085;53.472;9.794;2023-04-06T01:47:03;0.40;74.90
15969;DHT22;8085;53.472;9.794;2023-04-06T01:49:34;0.30;74.00
15969;DHT22;8085;53.472;9.794;2023-04-06T01:52:01;0.30;79.50
15969;DHT22;8085;53.472;9.794;2023-04-06T01:54:28;0.30;82.10
15969;DHT22;8085;53.472;9.794;2023-04-06T01:57:00;0.30;83.40
15969;DHT22;8085;53.472;9.794;2023-04-06T01:59:27;0.30;85.30
15969;DHT22;8085;53.472;9.794;2023-04-06T02:01:54;0.30;84.30
15969;DHT22;8085;53.472;9.794;2023-04-06T02:04:21;0.30;84.20
15969;DHT22;8085;53.472;9.794;2023-04-06T02:06:50;0.30;80.00
15969;DHT22;8085;53.472;9.794;2023-04-06T02:09:17;0.20;77.00
15969;DHT22;8085;53.472;9.794;2023-04-06T02:11:46;0.20;77.40
15969;DHT22;8085;53.472;9.794;2023-04-06T02:14:16;0.10;80.50
15969;DHT22;8085;53.472;9.794;2023-04-06T02:16:43;0.10;83.80
15969;DHT22;8085;53.472;9.794;2023-04-06T02:19:14;0.10;85.10
15969;DHT22;8085;53.472;9.794;2023-04-06T02:21:41;0.10;85.80
15969;DHT22;8085;53.472;9.794;2023-04-06T02:24:08;0.10;86.80
15969;DHT22;8085;53.472;9.794;2023-04-06T02:26:36;0.10;85.40
15969;DHT22;8085;53.472;9.794;2023-04-06T02:29:03;0.00;84.60
15969;DHT22;8085;53.472;9.794;2023-04-06T02:31:33;0.00;86.60
15969;DHT22;8085;53.472;9.794;2023-04-06T02:34:02;0.00;86.00
15969;DHT22;8085;53.472;9.794;2023-04-06T02:36:31;-0.10;86.20
15969;DHT22;8085;53.472;9.794;2023-04-06T02:38:58;-0.10;88.40
15969;DHT22;8085;53.472;9.794;2023-04-06T02:41:27;-0.10;91.60
15969;DHT22;8085;53.472;9.794;2023-04-06T02:43:54;-0.10;91.70
15969;DHT22;8085;53.472;9.794;2023-04-06T02:46:26;-0.10;91.00
15969;DHT22;8085;53.472;9.794;2023-04-06T02:48:58;-0.20;91.10
15969;DHT22;8085;53.472;9.794;2023-04-06T02:51:26;-0.20;92.10
15969;DHT22;8085;53.472;9.794;2023-04-06T02:53:56;-0.20;92.00
15969;DHT22;8085;53.472;9.794;2023-04-06T02:56:26;-0.30;92.40
15969;DHT22;8085;53.472;9.794;2023-04-06T02:58:53;-0.30;93.30
15969;DHT22;8085;53.472;9.794;2023-04-06T03:01:20;-0.30;93.10
15969;DHT22;8085;53.472;9.794;2023-04-06T03:03:48;-0.30;92.90
15969;DHT22;8085;53.472;9.794;2023-04-06T03:06:17;-0.30;92.80
15969;DHT22;8085;53.472;9.794;2023-04-06T03:08:46;-0.30;92.70
15969;DHT22;8085;53.472;9.794;2023-04-06T03:11:14;-0.30;91.90
15969;DHT22;8085;53.472;9.794;2023-04-06T03:13:41;-0.30;91.10
15969;DHT22;8085;53.472;9.794;2023-04-06T03:16:08;-0.40;91.20
15969;DHT22;8085;53.472;9.794;2023-04-06T03:18:41;-0.30;91.20
15969;DHT22;8085;53.472;9.794;2023-04-06T03:21:10;-0.30;91.70
15969;DHT22;8085;53.472;9.794;2023-04-06T03:23:41;-0.40;90.70
15969;DHT22;8085;53.472;9.794;2023-04-06T03:26:15;-0.40;90.50
15969;DHT22;8085;53.472;9.794;2023-04-06T03:28:43;-0.40;91.60
15969;DHT22;8085;53.472;9.794;2023-04-06T03:31:10;-0.40;91.70
15969;DHT22;8085;53.472;9.794;2023-04-06T03:33:37;-0.40;92.80
15969;DHT22;8085;53.472;9.794;2023-04-06T03:36:05;-0.50;93.30
15969;DHT22;8085;53.472;9.794;2023-04-06T03:38:35;-0.50;93.00
15969;DHT22;8085;53.472;9.794;2023-04-06T03:41:10;-0.50;92.10
15969;DHT22;8085;53.472;9.794;2023-04-06T03:43:37;-0.50;93.10
15969;DHT22;8085;53.472;9.794;2023-04-06T03:46:05;-0.60;93.90
15969;DHT22;8085;53.472;9.794;2023-04-06T03:48:32;-0.60;93.30
15969;DHT22;8085;53.472;9.794;2023-04-06T03:51:04;-0.60;93.40
15969;DHT22;8085;53.472;9.794;2023-04-06T03:53:37;-0.70;93.30
15969;DHT22;8085;53.472;9.794;2023-04-06T03:56:05;-0.70;93.90
15969;DHT22;8085;53.472;9.794;2023-04-06T03:58:33;-0.70;94.50
15969;DHT22;8085;53.472;9.794;2023-04-06T04:01:03;-0.70;94.30
15969;DHT22;8085;53.472;9.794;2023-04-06T04:03:31;-0.80;94.50
15969;DHT22;8085;53.472;9.794;2023-04-06T04:06:00;-0.80;94.30
15969;DHT22;8085;53.472;9.794;2023-04-06T04:08:27;-0.80;96.00
15969;DHT22;8085;53.472;9.794;2023-04-06T04:10:55;-0.80;96.80
15969;DHT22;8085;53.472;9.794;2023-04-06T04:13:24;-0.80;96.40
15969;DHT22;8085;53.472;9.794;2023-04-06T04:15:53;-0.80;96.70
15969;DHT22;8085;53.472;9.794;2023-04-06T04:18:21;-0.80;96.00
15969;DHT22;8085;53.472;9.794;2023-04-06T04:20:48;-0.80;95.20
15969;DHT22;8085;53.472;9.794;2023-04-06T04:23:15;-0.90;95.10
15969;DHT22;8085;53.472;9.794;2023-04-06T04:25:43;-0.90;95.70
15969;DHT22;8085;53.472;9.794;2023-04-06T04:28:11;-0.90;96.00
15969;DHT22;8085;53.472;9.794;2023-04-06T04:30:38;-0.90;95.40
15969;DHT22;8085;53.472;9.794;2023-04-06T04:33:06;-1.00;96.70
15969;DHT22;8085;53.472;9.794;2023-04-06T04:35:34;-1.00;97.50
15969;DHT22;8085;53.472;9.794;2023-04-06T04:38:01;-1.00;99.20
15969;DHT22;8085;53.472;9.794;2023-04-06T04:40:31;-1.00;99.50
15969;DHT22;8085;53.472;9.794;2023-04-06T04:43:02;-1.00;99.90
15969;DHT22;8085;53.472;9.794;2023-04-06T04:45:29;-1.00;99.70
15969;DHT22;8085;53.472;9.794;2023-04-06T04:48:02;-1.00;99.90
15969;DHT22;8085;53.472;9.794;2023-04-06T04:50:32;-1.00;99.90
15969;DHT22;8085;53.472;9.794;2023-04-06T04:52:59;-1.00;99.90
15969;DHT22;8085;53.472;9.794;2023-04-06T04:55:31;-1.00;99.90
15969;DHT22;8085;53.472;9.794;2023-04-06T04:58:04;-0.90;99.90
15969;DHT22;8085;53.472;9.794;2023-04-06T05:00:34;-0.90;99.90
15969;DHT22;8085;53.472;9.794;2023-04-06T05:03:01;-0.90;99.90
15969;DHT22;8085;53.472;9.794;2023-04-06T05:05:29;-0.90;99.90
15969;DHT22;8085;53.472;9.794;2023-04-06T05:07:57;-0.90;99.90
15969;DHT22;8085;53.472;9.794;2023-04-06T05:10:27;-0.80;99.90
15969;DHT22;8085;53.472;9.794;2023-04-06T05:12:54;-0.90;99.90
15969;DHT22;8085;53.472;9.794;2023-04-06T05:15:21;-0.80;99.90
15969;DHT22;8085;53.472;9.794;2023-04-06T05:17:50;-0.70;99.90
15969;DHT22;8085;53.472;9.794;2023-04-06T05:20:19;-0.60;99.90
15969;DHT22;8085;53.472;9.794;2023-04-06T05:22:49;-0.50;99.90
15969;DHT22;8085;53.472;9.794;2023-04-06T05:25:18;-0.30;99.90
15969;DHT22;8085;53.472;9.794;2023-04-06T05:27:45;-0.20;99.90
15969;DHT22;8085;53.472;9.794;2023-04-06T05:30:16;0.20;99.90
15969;DHT22;8085;53.472;9.794;2023-04-06T05:32:44;0.40;99.90
15969;DHT22;8085;53.472;9.794;2023-04-06T05:35:14;0.70;99.90
15969;DHT22;8085;53.472;9.794;2023-04-06T05:37:42;1.00;91.30
15969;DHT22;8085;53.472;9.794;2023-04-06T05:40:10;0.90;15.60
15969;DHT22;8085;53.472;9.794;2023-04-06T05:42:39;0.80;1.00
15969;DHT22;8085;53.472;9.794;2023-04-06T05:45:08;0.60;2.70
15969;DHT22;8085;53.472;9.794;2023-04-06T05:47:36;0.50;16.50
15969;DHT22;8085;53.472;9.794;2023-04-06T05:50:04;0.50;30.20
15969;DHT22;8085;53.472;9.794;2023-04-06T05:52:31;0.50;44.00
15969;DHT22;8085;53.472;9.794;2023-04-06T05:54:59;0.50;55.40
15969;DHT22;8085;53.472;9.794;2023-04-06T05:57:26;0.50;62.50
15969;DHT22;8085;53.472;9.794;2023-04-06T05:59:57;0.60;70.40
15969;DHT22;8085;53.472;9.794;2023-04-06T06:02:25;0.60;75.70
15969;DHT22;8085;53.472;9.794;2023-04-06T06:04:58;0.70;79.30
15969;DHT22;8085;53.472;9.794;2023-04-06T06:07:30;0.70;79.30
15969;DHT22;8085;53.472;9.794;2023-04-06T06:10:01;0.80;80.40
15969;DHT22;8085;53.472;9.794;2023-04-06T06:12:28;0.80;78.70
15969;DHT22;8085;53.472;9.794;2023-04-06T06:14:59;0.90;78.90
15969;DHT22;8085;53.472;9.794;2023-04-06T06:17:29;0.90;76.10
15969;DHT22;8085;53.472;9.794;2023-04-06T06:19:58;1.10;73.20
15969;DHT22;8085;53.472;9.794;2023-04-06T06:22:26;1.20;69.30
15969;DHT22;8085;53.472;9.794;2023-04-06T06:24:56;1.20;61.50
15969;DHT22;8085;53.472;9.794;2023-04-06T06:27:23;1.30;58.50
15969;DHT22;8085;53.472;9.794;2023-04-06T06:29:52;1.40;59.00
15969;DHT22;8085;53.472;9.794;2023-04-06T06:32:22;1.40;59.20
15969;DHT22;8085;53.472;9.794;2023-04-06T06:34:53;1.60;58.10
15969;DHT22;8085;53.472;9.794;2023-04-06T06:37:24;1.70;56.10
15969;DHT22;8085;53.472;9.794;2023-04-06T06:39:51;1.80;51.00
15969;DHT22;8085;53.472;9.794;2023-04-06T06:42:21;1.80;51.00
15969;DHT22;8085;53.472;9.794;2023-04-06T06:44:54;2.00;61.80
15969;DHT22;8085;53.472;9.794;2023-04-06T06:47:26;2.20;57.00
15969;DHT22;8085;53.472;9.794;2023-04-06T06:50:00;2.20;50.20
15969;DHT22;8085;53.472;9.794;2023-04-06T06:52:28;2.30;45.80
15969;DHT22;8085;53.472;9.794;2023-04-06T06:54:58;2.40;44.50
15969;DHT22;8085;53.472;9.794;2023-04-06T06:57:26;2.50;43.40
15969;DHT22;8085;53.472;9.794;2023-04-06T06:59:56;2.70;36.30
15969;DHT22;8085;53.472;9.794;2023-04-06T07:02:27;2.80;24.70
15969;DHT22;8085;53.472;9.794;2023-04-06T07:04:54;3.00;10.10
15969;DHT22;8085;53.472;9.794;2023-04-06T07:07:21;3.40;1.00
15969;DHT22;8085;53.472;9.794;2023-04-06T07:09:48;3.80;99.90
15969;DHT22;8085;53.472;9.794;2023-04-06T07:12:19;4.10;1.00
15969;DHT22;8085;53.472;9.794;2023-04-06T07:14:47;4.40;99.90
15969;DHT22;8085;53.472;9.794;2023-04-06T07:17:14;4.80;99.90
15969;DHT22;8085;53.472;9.794;2023-04-06T07:19:44;5.20;1.00
15969;DHT22;8085;53.472;9.794;2023-04-06T07:22:12;5.40;99.90
15969;DHT22;8085;53.472;9.794;2023-04-06T07:24:39;5.60;1.00
15969;DHT22;8085;53.472;9.794;2023-04-06T07:27:08;5.80;99.90
15969;DHT22;8085;53.472;9.794;2023-04-06T07:29:35;6.00;1.00
15969;DHT22;8085;53.472;9.794;2023-04-06T07:32:03;6.10;15.00
15969;DHT22;8085;53.472;9.794;2023-04-06T07:34:30;6.30;1.00
15969;DHT22;8085;53.472;9.794;2023-04-06T07:36:59;6.50;99.90
15969;DHT22;8085;53.472;9.794;2023-04-06T07:39:26;6.60;1.00
15969;DHT22;8085;53.472;9.794;2023-04-06T07:41:53;6.70;1.00
15969;DHT22;8085;53.472;9.794;2023-04-06T07:44:20;6.80;1.00
15969;DHT22;8085;53.472;9.794;2023-04-06T07:46:48;6.90;1.00
15969;DHT22;8085;53.472;9.794;2023-04-06T07:49:15;7.00;1.00
15969;DHT22;8085;53.472;9.794;2023-04-06T07:51:42;7.00;99.90
15969;DHT22;8085;53.472;9.794;2023-04-06T07:54:11;7.20;1.00
15969;DHT22;8085;53.472;9.794;2023-04-06T07:56:38;7.30;99.90
15969;DHT22;8085;53.472;9.794;2023-04-06T07:59:08;7.50;99.90
15969;DHT22;8085;53.472;9.794;2023-04-06T08:01:37;7.60;99.90
15969;DHT22;8085;53.472;9.794;2023-04-06T08:04:04;7.80;99.90
15969;DHT22;8085;53.472;9.794;2023-04-06T08:06:31;8.00;99.90
15969;DHT22;8085;53.472;9.794;2023-04-06T08:08:58;8.10;20.80
15969;DHT22;8085;53.472;9.794;2023-04-06T08:11:27;8.30;1.00
15969;DHT22;8085;53.472;9.794;2023-04-06T08:13:54;8.40;1.00
15969;DHT22;8085;53.472;9.794;2023-04-06T08:16:23;8.40;1.00
15969;DHT22;8085;53.472;9.794;2023-04-06T08:18:50;8.50;1.00
15969;DHT22;8085;53.472;9.794;2023-04-06T08:21:17;8.70;1.00
15969;DHT22;8085;53.472;9.794;2023-04-06T08:23:45;8.70;1.00
15969;DHT22;8085;53.472;9.794;2023-04-06T08:26:12;8.80;1.00
15969;DHT22;8085;53.472;9.794;2023-04-06T08:28:46;8.90;1.00
15969;DHT22;8085;53.472;9.794;2023-04-06T08:31:13;9.10;1.00
15969;DHT22;8085;53.472;9.794;2023-04-06T08:33:42;9.10;1.00
15969;DHT22;8085;53.472;9.794;2023-04-06T08:36:10;9.20;1.00
15969;DHT22;8085;53.472;9.794;2023-04-06T08:38:38;9.40;1.00
15969;DHT22;8085;53.472;9.794;2023-04-06T08:41:09;9.30;1.00
15969;DHT22;8085;53.472;9.794;2023-04-06T08:43:43;9.60;1.00
15969;DHT22;8085;53.472;9.794;2023-04-06T08:46:12;9.90;1.00
15969;DHT22;8085;53.472;9.794;2023-04-06T08:48:40;10.00;1.00
15969;DHT22;8085;53.472;9.794;2023-04-06T08:51:08;9.80;1.00
15969;DHT22;8085;53.472;9.794;2023-04-06T08:53:38;9.80;1.00
15969;DHT22;8085;53.472;9.794;2023-04-06T08:56:09;9.70;1.00
15969;DHT22;8085;53.472;9.794;2023-04-06T08:58:41;10.00;1.00
15969;DHT22;8085;53.472;9.794;2023-04-06T09:01:11;10.20;1.00
15969;DHT22;8085;53.472;9.794;2023-04-06T09:03:43;10.30;1.00
15969;DHT22;8085;53.472;9.794;2023-04-06T09:06:11;10.20;1.00
15969;DHT22;8085;53.472;9.794;2023-04-06T09:08:42;10.20;1.00
15969;DHT22;8085;53.472;9.794;2023-04-06T09:11:09;10.20;1.00
15969;DHT22;8085;53.472;9.794;2023-04-06T09:13:52;9.90;1.00
15969;DHT22;8085;53.472;9.794;2023-04-06T09:16:21;10.20;1.00
15969;DHT22;8085;53.472;9.794;2023-04-06T09:18:53;10.20;1.00
15969;DHT22;8085;53.472;9.794;2023-04-06T09:21:20;10.60;1.00
15969;DHT22;8085;53.472;9.794;2023-04-06T09:23:47;10.90;1.00
15969;DHT22;8085;53.472;9.794;2023-04-06T09:26:17;11.00;1.00
15969;DHT22;8085;53.472;9.794;2023-04-06T09:28:47;11.10;1.00
15969;DHT22;8085;53.472;9.794;2023-04-06T09:31:16;11.00;1.00
15969;DHT22;8085;53.472;9.794;2023-04-06T09:33:44;11.20;1.00
15969;DHT22;8085;53.472;9.794;2023-04-06T09:36:14;11.00;1.00
15969;DHT22;8085;53.472;9.794;2023-04-06T09:38:58;11.00;1.00
15969;DHT22;8085;53.472;9.794;2023-04-06T09:41:26;10.90;1.00
15969;DHT22;8085;53.472;9.794;2023-04-06T09:44:02;10.80;1.00
15969;DHT22;8085;53.472;9.794;2023-04-06T09:46:32;10.80;1.00
15969;DHT22;8085;53.472;9.794;2023-04-06T09:49:01;11.00;1.00
15969;DHT22;8085;53.472;9.794;2023-04-06T09:51:32;11.30;1.00
15969;DHT22;8085;53.472;9.794;2023-04-06T09:54:03;11.50;1.00
15969;DHT22;8085;53.472;9.794;2023-04-06T09:56:33;11.30;99.90
15969;DHT22;8085;53.472;9.794;2023-04-06T09:59:09;11.10;99.90
15969;DHT22;8085;53.472;9.794;2023-04-06T10:01:37;11.40;99.90
15969;DHT22;8085;53.472;9.794;2023-04-06T10:04:13;11.20;99.90
15969;DHT22;8085;53.472;9.794;2023-04-06T10:06:50;11.40;99.90
15969;DHT22;8085;53.472;9.794;2023-04-06T10:09:25;11.90;99.90
15969;DHT22;8085;53.472;9.794;2023-04-06T10:11:55;12.10;99.90
15969;DHT22;8085;53.472;9.794;2023-04-06T10:14:24;12.10;99.90
15969;DHT22;8085;53.472;9.794;2023-04-06T10:16:54;12.30;99.90
15969;DHT22;8085;53.472;9.794;2023-04-06T10:19:24;12.30;99.90
15969;DHT22;8085;53.472;9.794;2023-04-06T10:21:56;12.30;99.90
15969;DHT22;8085;53.472;9.794;2023-04-06T10:24:29;12.50;99.90
15969;DHT22;8085;53.472;9.794;2023-04-06T10:27:02;12.90;99.90
15969;DHT22;8085;53.472;9.794;2023-04-06T10:29:42;13.10;99.90
15969;DHT22;8085;53.472;9.794;2023-04-06T10:32:10;13.20;99.90
15969;DHT22;8085;53.472;9.794;2023-04-06T10:34:37;12.70;99.90
15969;DHT22;8085;53.472;9.794;2023-04-06T10:37:13;12.60;99.90
15969;DHT22;8085;53.472;9.794;2023-04-06T10:39:47;12.80;99.90
15969;DHT22;8085;53.472;9.794;2023-04-06T10:42:24;12.60;99.90
15969;DHT22;8085;53.472;9.794;2023-04-06T10:44:56;12.70;99.90
15969;DHT22;8085;53.472;9.794;2023-04-06T10:47:24;12.70;99.90
15969;DHT22;8085;53.472;9.794;2023-04-06T10:49:54;13.00;99.90
15969;DHT22;8085;53.472;9.794;2023-04-06T10:52:22;13.30;99.90
15969;DHT22;8085;53.472;9.794;2023-04-06T10:54:51;13.40;99.90
15969;DHT22;8085;53.472;9.794;2023-04-06T10:57:31;13.60;99.90
15969;DHT22;8085;53.472;9.794;2023-04-06T11:00:03;13.60;99.90
15969;DHT22;8085;53.472;9.794;2023-04-06T11:02:33;13.80;99.90
15969;DHT22;8085;53.472;9.794;2023-04-06T11:05:03;13.60;99.90
15969;DHT22;8085;53.472;9.794;2023-04-06T11:07:35;13.90;99.90
15969;DHT22;8085;53.472;9.794;2023-04-06T11:10:02;13.50;99.90
15969;DHT22;8085;53.472;9.794;2023-04-06T11:12:33;13.50;99.90
15969;DHT22;8085;53.472;9.794;2023-04-06T11:15:02;13.50;99.90
15969;DHT22;8085;53.472;9.794;2023-04-06T11:17:33;13.40;99.90
15969;DHT22;8085;53.472;9.794;2023-04-06T11:20:02;13.60;99.90
15969;DHT22;8085;53.472;9.794;2023-04-06T11:22:30;13.90;99.90
15969;DHT22;8085;53.472;9.794;2023-04-06T11:25:13;14.00;99.90
15969;DHT22;8085;53.472;9.794;2023-04-06T11:27:43;14.40;99.90
15969;DHT22;8085;53.472;9.794;2023-04-06T11:30:14;13.90;99.90
15969;DHT22;8085;53.472;9.794;2023-04-06T11:32:43;14.10;99.90
15969;DHT22;8085;53.472;9.794;2023-04-06T11:35:23;14.10;99.90
15969;DHT22;8085;53.472;9.794;2023-04-06T11:37:52;14.30;99.90
15969;DHT22;8085;53.472;9.794;2023-04-06T11:40:24;13.80;99.90
15969;DHT22;8085;53.472;9.794;2023-04-06T11:42:54;13.80;99.90
15969;DHT22;8085;53.472;9.794;2023-04-06T11:45:24;14.10;99.90
15969;DHT22;8085;53.472;9.794;2023-04-06T11:48:00;14.10;99.90
15969;DHT22;8085;53.472;9.794;2023-04-06T11:50:32;14.30;99.90
15969;DHT22;8085;53.472;9.794;2023-04-06T11:53:01;14.40;99.90
15969;DHT22;8085;53.472;9.794;2023-04-06T11:55:37;14.60;99.90
15969;DHT22;8085;53.472;9.794;2023-04-06T11:58:12;14.90;99.90
15969;DHT22;8085;53.472;9.794;2023-04-06T12:00:43;14.80;99.90
15969;DHT22;8085;53.472;9.794;2023-04-06T12:03:12;14.40;99.90
15969;DHT22;8085;53.472;9.794;2023-04-06T12:05:45;14.50;99.90
15969;DHT22;8085;53.472;9.794;2023-04-06T12:08:16;14.70;99.90
15969;DHT22;8085;53.472;9.794;2023-04-06T12:10:44;14.00;99.90
15969;DHT22;8085;53.472;9.794;2023-04-06T12:13:12;13.90;99.90
15969;DHT22;8085;53.472;9.794;2023-04-06T12:15:39;14.20;99.90
15969;DHT22;8085;53.472;9.794;2023-04-06T12:18:08;14.30;99.90
15969;DHT22;8085;53.472;9.794;2023-04-06T12:20:37;14.40;99.90
15969;DHT22;8085;53.472;9.794;2023-04-06T12:23:04;14.00;99.90
15969;DHT22;8085;53.472;9.794;2023-04-06T12:25:31;14.30;99.90
15969;DHT22;8085;53.472;9.794;2023-04-06T12:28:00;14.50;99.90
15969;DHT22;8085;53.472;9.794;2023-04-06T12:30:27;14.60;99.90
15969;DHT22;8085;53.472;9.794;2023-04-06T12:32:54;14.80;99.90
15969;DHT22;8085;53.472;9.794;2023-04-06T12:35:22;15.00;99.90
15969;DHT22;8085;53.472;9.794;2023-04-06T12:37:49;14.90;99.90
15969;DHT22;8085;53.472;9.794;2023-04-06T12:40:18;14.70;99.90
15969;DHT22;8085;53.472;9.794;2023-04-06T12:42:46;14.40;99.90
15969;DHT22;8085;53.472;9.794;2023-04-06T12:45:14;14.60;99.90
15969;DHT22;8085;53.472;9.794;2023-04-06T12:47:41;14.30;99.90
15969;DHT22;8085;53.472;9.794;2023-04-06T12:50:09;14.20;99.90
15969;DHT22;8085;53.472;9.794;2023-04-06T12:52:36;14.20;99.90
15969;DHT22;8085;53.472;9.794;2023-04-06T12:55:06;14.20;99.90
15969;DHT22;8085;53.472;9.794;2023-04-06T12:57:34;14.50;99.90
15969;DHT22;8085;53.472;9.794;2023-04-06T13:00:03;14.90;99.90
15969;DHT22;8085;53.472;9.794;2023-04-06T13:02:32;15.10;99.90
15969;DHT22;8085;53.472;9.794;2023-04-06T13:04:59;15.20;99.90
15969;DHT22;8085;53.472;9.794;2023-04-06T13:07:28;14.80;99.90
15969;DHT22;8085;53.472;9.794;2023-04-06T13:09:55;14.80;99.90
15969;DHT22;8085;53.472;9.794;2023-04-06T13:12:22;14.60;99.90
15969;DHT22;8085;53.472;9.794;2023-04-06T13:14:50;14.50;99.90
15969;DHT22;8085;53.472;9.794;2023-04-06T13:17:18;14.70;99.90
15969;DHT22;8085;53.472;9.794;2023-04-06T13:19:48;14.90;99.90
15969;DHT22;8085;53.472;9.794;2023-04-06T13:22:17;14.90;99.90
15969;DHT22;8085;53.472;9.794;2023-04-06T13:24:47;14.90;99.90
15969;DHT22;8085;53.472;9.794;2023-04-06T13:27:14;14.80;99.90
15969;DHT22;8085;53.472;9.794;2023-04-06T13:29:44;15.00;99.90
15969;DHT22;8085;53.472;9.794;2023-04-06T13:32:11;15.30;99.90
15969;DHT22;8085;53.472;9.794;2023-04-06T13:34:39;15.40;99.90
15969;DHT22;8085;53.472;9.794;2023-04-06T13:37:11;15.60;99.90
15969;DHT22;8085;53.472;9.794;2023-04-06T13:39:39;15.70;99.90
15969;DHT22;8085;53.472;9.794;2023-04-06T13:42:06;15.80;99.90
15969;DHT22;8085;53.472;9.794;2023-04-06T13:44:33;15.40;99.90
15969;DHT22;8085;53.472;9.794;2023-04-06T13:47:03;15.40;99.90
15969;DHT22;8085;53.472;9.794;2023-04-06T13:49:30;15.30;99.90
15969;DHT22;8085;53.472;9.794;2023-04-06T13:51:57;15.70;99.90
15969;DHT22;8085;53.472;9.794;2023-04-06T13:54:26;15.70;99.90
15969;DHT22;8085;53.472;9.794;2023-04-06T13:56:54;15.60;99.90
15969;DHT22;8085;53.472;9.794;2023-04-06T13:59:22;15.60;99.90
15969;DHT22;8085;53.472;9.794;2023-04-06T14:01:50;15.70;99.90
15969;DHT22;8085;53.472;9.794;2023-04-06T14:04:17;15.70;99.90
15969;DHT22;8085;53.472;9.794;2023-04-06T14:06:45;15.70;99.90
15969;DHT22;8085;53.472;9.794;2023-04-06T14:09:12;15.60;99.90
15969;DHT22;8085;53.472;9.794;2023-04-06T14:11:40;15.60;99.90
15969;DHT22;8085;53.472;9.794;2023-04-06T14:14:07;15.70;99.90
15969;DHT22;8085;53.472;9.794;2023-04-06T14:16:35;15.80;99.90
15969;DHT22;8085;53.472;9.794;2023-04-06T14:19:02;15.50;99.90
15969;DHT22;8085;53.472;9.794;2023-04-06T14:21:29;15.50;99.90
15969;DHT22;8085;53.472;9.794;2023-04-06T14:23:57;15.50;99.90
15969;DHT22;8085;53.472;9.794;2023-04-06T14:26:24;15.50;99.90
15969;DHT22;8085;53.472;9.794;2023-04-06T14:28:52;15.60;99.90
15969;DHT22;8085;53.472;9.794;2023-04-06T14:31:19;15.60;99.90
15969;DHT22;8085;53.472;9.794;2023-04-06T14:33:46;15.50;99.90
15969;DHT22;8085;53.472;9.794;2023-04-06T14:36:13;15.50;99.90
15969;DHT22;8085;53.472;9.794;2023-04-06T14:38:40;15.60;99.90
15969;DHT22;8085;53.472;9.794;2023-04-06T14:41:14;15.50;99.90
15969;DHT22;8085;53.472;9.794;2023-04-06T14:43:42;15.50;99.90
15969;DHT22;8085;53.472;9.794;2023-04-06T14:46:10;15.30;99.90
15969;DHT22;8085;53.472;9.794;2023-04-06T14:48:39;15.10;99.90
15969;DHT22;8085;53.472;9.794;2023-04-06T14:51:06;15.10;99.90
15969;DHT22;8085;53.472;9.794;2023-04-06T14:53:35;15.20;99.90
15969;DHT22;8085;53.472;9.794;2023-04-06T14:56:03;15.30;99.90
15969;DHT22;8085;53.472;9.794;2023-04-06T14:58:30;15.30;99.90
15969;DHT22;8085;53.472;9.794;2023-04-06T15:00:58;15.30;99.90
15969;DHT22;8085;53.472;9.794;2023-04-06T15:03:30;15.40;99.90
15969;DHT22;8085;53.472;9.794;2023-04-06T15:05:57;15.30;99.90
15969;DHT22;8085;53.472;9.794;2023-04-06T15:08:24;15.30;99.90
15969;DHT22;8085;53.472;9.794;2023-04-06T15:10:51;15.20;99.90
15969;DHT22;8085;53.472;9.794;2023-04-06T15:13:20;15.20;99.90
15969;DHT22;8085;53.472;9.794;2023-04-06T15:15:50;15.30;99.90
15969;DHT22;8085;53.472;9.794;2023-04-06T15:18:18;15.30;99.90
15969;DHT22;8085;53.472;9.794;2023-04-06T15:20:46;15.30;99.90
15969;DHT22;8085;53.472;9.794;2023-04-06T15:23:13;15.30;99.90
15969;DHT22;8085;53.472;9.794;2023-04-06T15:25:40;15.10;99.90
15969;DHT22;8085;53.472;9.794;2023-04-06T15:28:07;15.20;99.90
15969;DHT22;8085;53.472;9.794;2023-04-06T15:30:36;15.30;99.90
15969;DHT22;8085;53.472;9.794;2023-04-06T15:33:04;15.20;99.90
15969;DHT22;8085;53.472;9.794;2023-04-06T15:35:31;15.10;99.90
15969;DHT22;8085;53.472;9.794;2023-04-06T15:38:01;15.10;99.90
15969;DHT22;8085;53.472;9.794;2023-04-06T15:40:28;15.00;99.90
15969;DHT22;8085;53.472;9.794;2023-04-06T15:42:55;15.00;99.90
15969;DHT22;8085;53.472;9.794;2023-04-06T15:45:22;15.10;99.90
15969;DHT22;8085;53.472;9.794;2023-04-06T15:47:49;15.10;99.90
15969;DHT22;8085;53.472;9.794;2023-04-06T15:50:16;15.10;99.90
15969;DHT22;8085;53.472;9.794;2023-04-06T15:52:44;15.00;99.90
15969;DHT22;8085;53.472;9.794;2023-04-06T15:55:12;14.90;99.90
15969;DHT22;8085;53.472;9.794;2023-04-06T15:57:42;14.90;99.90
15969;DHT22;8085;53.472;9.794;2023-04-06T16:00:10;14.80;99.90
15969;DHT22;8085;53.472;9.794;2023-04-06T16:02:38;14.80;99.90
15969;DHT22;8085;53.472;9.794;2023-04-06T16:05:05;14.70;99.90